sensor_id;sensor_type;location;lat;lon;timestamp;P1;durP1;ratioP1;P2;durP2;ratioP2
11829;SDS011;5972;42.134;24.718;2023-01-01T00:00:12;85.20;;;54.13;;
11829;SDS011;5972;42.134;24.718;2023-01-01T00:02:39;84.60;;;53.67;;
11829;SDS011;5972;42.134;24.718;2023-01-01T00:05:06;84.00;;;52.43;;
11829;SDS011;5972;42.134;24.718;2023-01-01T00:07:35;83.37;;;52.67;;
11829;SDS011;5972;42.134;24.718;2023-01-01T00:10:02;73.33;;;49.13;;
11829;SDS011;5972;42.134;24.718;2023-01-01T00:12:47;61.80;;;41.30;;
11829;SDS011;5972;42.134;24.718;2023-01-01T00:15:13;55.50;;;37.87;;
11829;SDS011;5972;42.134;24.718;2023-01-01T00:17:40;61.77;;;40.00;;
11829;SDS011;5972;42.134;24.718;2023-01-01T00:20:07;57.73;;;39.03;;
11829;SDS011;5972;42.134;24.718;2023-01-01T00:22:36;58.83;;;38.73;;
11829;SDS011;5972;42.134;24.718;2023-01-01T00:25:04;61.90;;;42.03;;
11829;SDS011;5972;42.134;24.718;2023-01-01T00:27:31;62.70;;;38.63;;
11829;SDS011;5972;42.134;24.718;2023-01-01T00:29:58;57.10;;;40.30;;
11829;SDS011;5972;42.134;24.718;2023-01-01T00:32:25;64.70;;;42.10;;
11829;SDS011;5972;42.134;24.718;2023-01-01T00:34:52;63.20;;;41.13;;
11829;SDS011;5972;42.134;24.718;2023-01-01T00:37:18;64.27;;;43.07;;
11829;SDS011;5972;42.134;24.718;2023-01-01T00:39:46;59.67;;;39.67;;
11829;SDS011;5972;42.134;24.718;2023-01-01T00:42:13;61.57;;;39.00;;
11829;SDS011;5972;42.134;24.718;2023-01-01T00:44:40;55.93;;;38.77;;
11829;SDS011;5972;42.134;24.718;2023-01-01T00:47:07;58.63;;;36.77;;
11829;SDS011;5972;42.134;24.718;2023-01-01T00:49:34;53.77;;;35.97;;
11829;SDS011;5972;42.134;24.718;2023-01-01T00:52:00;55.97;;;37.60;;
11829;SDS011;5972;42.134;24.718;2023-01-01T00:54:27;55.93;;;37.10;;
11829;SDS011;5972;42.134;24.718;2023-01-01T00:56:55;52.93;;;33.40;;
11829;SDS011;5972;42.134;24.718;2023-01-01T00:59:22;52.43;;;34.97;;
11829;SDS011;5972;42.134;24.718;2023-01-01T01:01:49;57.13;;;35.37;;
11829;SDS011;5972;42.134;24.718;2023-01-01T01:04:16;54.77;;;35.43;;
11829;SDS011;5972;42.134;24.718;2023-01-01T01:06:42;56.27;;;36.67;;
11829;SDS011;5972;42.134;24.718;2023-01-01T01:09:09;58.40;;;36.97;;
11829;SDS011;5972;42.134;24.718;2023-01-01T01:11:36;58.00;;;36.17;;
11829;SDS011;5972;42.134;24.718;2023-01-01T01:14:04;51.93;;;33.03;;
11829;SDS011;5972;42.134;24.718;2023-01-01T01:16:32;45.87;;;29.97;;
11829;SDS011;5972;42.134;24.718;2023-01-01T01:19:00;53.77;;;33.13;;
11829;SDS011;5972;42.134;24.718;2023-01-01T01:21:30;59.30;;;34.50;;
11829;SDS011;5972;42.134;24.718;2023-01-01T01:23:59;51.03;;;32.47;;
11829;SDS011;5972;42.134;24.718;2023-01-01T01:26:27;52.33;;;33.63;;
11829;SDS011;5972;42.134;24.718;2023-01-01T01:28:55;101.67;;;57.93;;
11829;SDS011;5972;42.134;24.718;2023-01-01T01:31:26;74.27;;;47.47;;
11829;SDS011;5972;42.134;24.718;2023-01-01T01:33:54;49.13;;;33.07;;
11829;SDS011;5972;42.134;24.718;2023-01-01T01:36:21;57.23;;;33.93;;
11829;SDS011;5972;42.134;24.718;2023-01-01T01:38:48;54.83;;;35.10;;
11829;SDS011;5972;42.134;24.718;2023-01-01T01:41:16;61.83;;;37.00;;
11829;SDS011;5972;42.134;24.718;2023-01-01T01:43:46;61.60;;;39.53;;
11829;SDS011;5972;42.134;24.718;2023-01-01T01:46:18;66.17;;;43.13;;
11829;SDS011;5972;42.134;24.718;2023-01-01T01:48:52;59.20;;;39.73;;
11829;SDS011;5972;42.134;24.718;2023-01-01T01:51:22;56.90;;;38.57;;
11829;SDS011;5972;42.134;24.718;2023-01-01T01:53:53;62.13;;;39.63;;
11829;SDS011;5972;42.134;24.718;2023-01-01T01:56:24;60.80;;;39.73;;
11829;SDS011;5972;42.134;24.718;2023-01-01T01:58:54;56.97;;;38.30;;
11829;SDS011;5972;42.134;24.718;2023-01-01T02:01:22;59.30;;;36.80;;
11829;SDS011;5972;42.134;24.718;2023-01-01T02:03:50;56.27;;;38.10;;
11829;SDS011;5972;42.134;24.718;2023-01-01T02:06:22;55.97;;;38.73;;
11829;SDS011;5972;42.134;24.718;2023-01-01T02:08:50;68.70;;;40.77;;
11829;SDS011;5972;42.134;24.718;2023-01-01T02:11:18;59.43;;;39.73;;
11829;SDS011;5972;42.134;24.718;2023-01-01T02:13:44;63.63;;;42.07;;
11829;SDS011;5972;42.134;24.718;2023-01-01T02:16:12;69.60;;;45.00;;
11829;SDS011;5972;42.134;24.718;2023-01-01T02:18:45;67.03;;;43.10;;
11829;SDS011;5972;42.134;24.718;2023-01-01T02:21:20;65.13;;;42.07;;
11829;SDS011;5972;42.134;24.718;2023-01-01T02:26:45;119.23;;;77.00;;
11829;SDS011;5972;42.134;24.718;2023-01-01T02:32:07;116.23;;;76.00;;
11829;SDS011;5972;42.134;24.718;2023-01-01T02:34:39;108.73;;;72.50;;
11829;SDS011;5972;42.134;24.718;2023-01-01T02:37:11;108.27;;;68.53;;
11829;SDS011;5972;42.134;24.718;2023-01-01T02:39:41;92.20;;;58.93;;
11829;SDS011;5972;42.134;24.718;2023-01-01T02:42:13;79.43;;;52.57;;
11829;SDS011;5972;42.134;24.718;2023-01-01T02:44:43;98.57;;;62.10;;
11829;SDS011;5972;42.134;24.718;2023-01-01T02:47:13;107.57;;;73.20;;
11829;SDS011;5972;42.134;24.718;2023-01-01T02:49:45;102.83;;;64.17;;
11829;SDS011;5972;42.134;24.718;2023-01-01T02:55:20;85.63;;;53.43;;
11829;SDS011;5972;42.134;24.718;2023-01-01T02:57:56;65.30;;;43.50;;
11829;SDS011;5972;42.134;24.718;2023-01-01T03:00:50;59.77;;;39.53;;
11829;SDS011;5972;42.134;24.718;2023-01-01T03:03:24;66.23;;;39.70;;
11829;SDS011;5972;42.134;24.718;2023-01-01T03:05:55;55.43;;;36.73;;
11829;SDS011;5972;42.134;24.718;2023-01-01T03:08:48;47.43;;;31.77;;
11829;SDS011;5972;42.134;24.718;2023-01-01T03:11:22;52.23;;;34.03;;
11829;SDS011;5972;42.134;24.718;2023-01-01T03:13:52;49.73;;;32.83;;
11829;SDS011;5972;42.134;24.718;2023-01-01T03:16:27;59.27;;;37.47;;
11829;SDS011;5972;42.134;24.718;2023-01-01T03:18:59;50.70;;;34.83;;
11829;SDS011;5972;42.134;24.718;2023-01-01T03:21:40;61.03;;;39.27;;
11829;SDS011;5972;42.134;24.718;2023-01-01T03:24:11;64.90;;;39.60;;
11829;SDS011;5972;42.134;24.718;2023-01-01T03:26:43;45.57;;;30.67;;
11829;SDS011;5972;42.134;24.718;2023-01-01T03:29:16;44.40;;;30.30;;
11829;SDS011;5972;42.134;24.718;2023-01-01T03:31:45;44.73;;;31.87;;
11829;SDS011;5972;42.134;24.718;2023-01-01T03:34:16;47.17;;;32.37;;
11829;SDS011;5972;42.134;24.718;2023-01-01T03:36:48;48.17;;;33.47;;
11829;SDS011;5972;42.134;24.718;2023-01-01T03:39:20;52.40;;;32.30;;
11829;SDS011;5972;42.134;24.718;2023-01-01T03:41:51;52.10;;;33.00;;
11829;SDS011;5972;42.134;24.718;2023-01-01T03:44:24;49.60;;;33.70;;
11829;SDS011;5972;42.134;24.718;2023-01-01T03:46:55;53.83;;;33.87;;
11829;SDS011;5972;42.134;24.718;2023-01-01T03:49:22;48.50;;;33.27;;
11829;SDS011;5972;42.134;24.718;2023-01-01T03:51:55;48.63;;;31.70;;
11829;SDS011;5972;42.134;24.718;2023-01-01T03:54:30;47.40;;;32.57;;
11829;SDS011;5972;42.134;24.718;2023-01-01T03:57:05;49.77;;;33.47;;
11829;SDS011;5972;42.134;24.718;2023-01-01T03:59:39;47.13;;;32.17;;
11829;SDS011;5972;42.134;24.718;2023-01-01T04:02:12;45.67;;;31.63;;
11829;SDS011;5972;42.134;24.718;2023-01-01T04:04:44;46.87;;;33.00;;
11829;SDS011;5972;42.134;24.718;2023-01-01T04:07:11;52.20;;;33.63;;
11829;SDS011;5972;42.134;24.718;2023-01-01T04:09:38;49.63;;;32.70;;
11829;SDS011;5972;42.134;24.718;2023-01-01T04:12:09;50.60;;;31.70;;
11829;SDS011;5972;42.134;24.718;2023-01-01T04:14:37;49.60;;;32.67;;
11829;SDS011;5972;42.134;24.718;2023-01-01T04:17:05;51.23;;;33.97;;
11829;SDS011;5972;42.134;24.718;2023-01-01T04:19:35;43.80;;;30.60;;
11829;SDS011;5972;42.134;24.718;2023-01-01T04:22:02;49.43;;;32.00;;
11829;SDS011;5972;42.134;24.718;2023-01-01T04:24:29;43.47;;;30.33;;
11829;SDS011;5972;42.134;24.718;2023-01-01T04:26:56;45.00;;;30.00;;
11829;SDS011;5972;42.134;24.718;2023-01-01T04:29:23;50.57;;;31.53;;
11829;SDS011;5972;42.134;24.718;2023-01-01T04:31:50;51.60;;;32.53;;
11829;SDS011;5972;42.134;24.718;2023-01-01T04:34:17;50.13;;;33.10;;
11829;SDS011;5972;42.134;24.718;2023-01-01T04:36:45;49.83;;;31.73;;
11829;SDS011;5972;42.134;24.718;2023-01-01T04:39:12;45.57;;;30.70;;
11829;SDS011;5972;42.134;24.718;2023-01-01T04:41:38;52.43;;;32.30;;
11829;SDS011;5972;42.134;24.718;2023-01-01T04:44:05;52.70;;;33.60;;
11829;SDS011;5972;42.134;24.718;2023-01-01T04:46:32;50.17;;;32.40;;
11829;SDS011;5972;42.134;24.718;2023-01-01T04:48:59;42.70;;;30.90;;
11829;SDS011;5972;42.134;24.718;2023-01-01T04:51:26;47.77;;;30.70;;
11829;SDS011;5972;42.134;24.718;2023-01-01T04:53:54;76.90;;;47.37;;
11829;SDS011;5972;42.134;24.718;2023-01-01T04:56:21;57.73;;;36.67;;
11829;SDS011;5972;42.134;24.718;2023-01-01T04:58:48;48.93;;;31.57;;
11829;SDS011;5972;42.134;24.718;2023-01-01T05:01:16;48.33;;;30.00;;
11829;SDS011;5972;42.134;24.718;2023-01-01T05:03:44;50.00;;;31.73;;
11829;SDS011;5972;42.134;24.718;2023-01-01T05:06:11;46.50;;;30.60;;
11829;SDS011;5972;42.134;24.718;2023-01-01T05:08:39;47.63;;;31.57;;
11829;SDS011;5972;42.134;24.718;2023-01-01T05:11:08;50.03;;;31.90;;
11829;SDS011;5972;42.134;24.718;2023-01-01T05:13:37;47.07;;;30.50;;
11829;SDS011;5972;42.134;24.718;2023-01-01T05:16:05;48.63;;;31.00;;
11829;SDS011;5972;42.134;24.718;2023-01-01T05:18:34;51.20;;;31.67;;
11829;SDS011;5972;42.134;24.718;2023-01-01T05:21:02;45.17;;;30.27;;
11829;SDS011;5972;42.134;24.718;2023-01-01T05:23:30;43.40;;;30.57;;
11829;SDS011;5972;42.134;24.718;2023-01-01T05:25:57;52.70;;;31.83;;
11829;SDS011;5972;42.134;24.718;2023-01-01T05:28:25;47.60;;;31.53;;
11829;SDS011;5972;42.134;24.718;2023-01-01T05:30:52;43.97;;;29.50;;
11829;SDS011;5972;42.134;24.718;2023-01-01T05:33:19;56.53;;;32.00;;
11829;SDS011;5972;42.134;24.718;2023-01-01T05:35:51;46.60;;;32.63;;
11829;SDS011;5972;42.134;24.718;2023-01-01T05:38:19;47.20;;;31.40;;
11829;SDS011;5972;42.134;24.718;2023-01-01T05:40:46;46.23;;;32.03;;
11829;SDS011;5972;42.134;24.718;2023-01-01T05:43:13;49.90;;;31.63;;
11829;SDS011;5972;42.134;24.718;2023-01-01T05:45:43;50.83;;;33.73;;
11829;SDS011;5972;42.134;24.718;2023-01-01T05:48:10;48.53;;;31.80;;
11829;SDS011;5972;42.134;24.718;2023-01-01T05:50:37;49.87;;;32.23;;
11829;SDS011;5972;42.134;24.718;2023-01-01T05:53:04;58.40;;;37.30;;
11829;SDS011;5972;42.134;24.718;2023-01-01T05:55:31;47.40;;;31.40;;
11829;SDS011;5972;42.134;24.718;2023-01-01T05:57:57;44.97;;;30.67;;
11829;SDS011;5972;42.134;24.718;2023-01-01T06:00:24;44.30;;;31.63;;
11829;SDS011;5972;42.134;24.718;2023-01-01T06:02:53;53.53;;;32.73;;
11829;SDS011;5972;42.134;24.718;2023-01-01T06:05:20;51.37;;;34.93;;
11829;SDS011;5972;42.134;24.718;2023-01-01T06:07:47;49.17;;;32.73;;
11829;SDS011;5972;42.134;24.718;2023-01-01T06:10:14;49.33;;;31.60;;
11829;SDS011;5972;42.134;24.718;2023-01-01T06:12:40;50.87;;;34.27;;
11829;SDS011;5972;42.134;24.718;2023-01-01T06:15:07;55.80;;;34.60;;
11829;SDS011;5972;42.134;24.718;2023-01-01T06:17:34;52.57;;;34.80;;
11829;SDS011;5972;42.134;24.718;2023-01-01T06:20:03;66.83;;;39.13;;
11829;SDS011;5972;42.134;24.718;2023-01-01T06:22:30;60.07;;;36.70;;
11829;SDS011;5972;42.134;24.718;2023-01-01T06:24:57;55.87;;;35.17;;
11829;SDS011;5972;42.134;24.718;2023-01-01T06:27:24;57.40;;;35.57;;
11829;SDS011;5972;42.134;24.718;2023-01-01T06:29:50;52.43;;;34.10;;
11829;SDS011;5972;42.134;24.718;2023-01-01T06:32:17;53.37;;;33.87;;
11829;SDS011;5972;42.134;24.718;2023-01-01T06:34:44;47.73;;;32.97;;
11829;SDS011;5972;42.134;24.718;2023-01-01T06:37:12;51.43;;;33.67;;
11829;SDS011;5972;42.134;24.718;2023-01-01T06:39:39;52.63;;;32.57;;
11829;SDS011;5972;42.134;24.718;2023-01-01T06:42:05;52.83;;;33.83;;
11829;SDS011;5972;42.134;24.718;2023-01-01T06:44:32;54.07;;;35.13;;
11829;SDS011;5972;42.134;24.718;2023-01-01T06:46:59;51.37;;;32.77;;
11829;SDS011;5972;42.134;24.718;2023-01-01T06:49:26;58.50;;;34.30;;
11829;SDS011;5972;42.134;24.718;2023-01-01T06:51:53;61.87;;;37.77;;
11829;SDS011;5972;42.134;24.718;2023-01-01T06:54:21;56.03;;;31.90;;
11829;SDS011;5972;42.134;24.718;2023-01-01T06:56:48;43.37;;;26.20;;
11829;SDS011;5972;42.134;24.718;2023-01-01T06:59:15;46.00;;;27.47;;
11829;SDS011;5972;42.134;24.718;2023-01-01T07:01:42;40.33;;;25.60;;
11829;SDS011;5972;42.134;24.718;2023-01-01T07:04:09;45.83;;;30.27;;
11829;SDS011;5972;42.134;24.718;2023-01-01T07:06:38;35.10;;;22.43;;
11829;SDS011;5972;42.134;24.718;2023-01-01T07:09:05;28.47;;;19.37;;
11829;SDS011;5972;42.134;24.718;2023-01-01T07:11:34;32.40;;;19.10;;
11829;SDS011;5972;42.134;24.718;2023-01-01T07:14:01;31.10;;;19.67;;
11829;SDS011;5972;42.134;24.718;2023-01-01T07:16:28;28.70;;;19.00;;
11829;SDS011;5972;42.134;24.718;2023-01-01T07:18:55;27.00;;;17.77;;
11829;SDS011;5972;42.134;24.718;2023-01-01T07:21:25;27.40;;;18.73;;
11829;SDS011;5972;42.134;24.718;2023-01-01T07:23:54;30.83;;;21.07;;
11829;SDS011;5972;42.134;24.718;2023-01-01T07:26:22;29.80;;;20.20;;
11829;SDS011;5972;42.134;24.718;2023-01-01T07:28:50;30.43;;;20.63;;
11829;SDS011;5972;42.134;24.718;2023-01-01T07:31:17;29.77;;;22.40;;
11829;SDS011;5972;42.134;24.718;2023-01-01T07:33:44;31.30;;;22.97;;
11829;SDS011;5972;42.134;24.718;2023-01-01T07:36:10;32.00;;;21.53;;
11829;SDS011;5972;42.134;24.718;2023-01-01T07:38:38;34.13;;;20.03;;
11829;SDS011;5972;42.134;24.718;2023-01-01T07:41:05;28.63;;;19.95;;
11829;SDS011;5972;42.134;24.718;2023-01-01T07:43:31;25.58;;;19.15;;
11829;SDS011;5972;42.134;24.718;2023-01-01T07:46:00;27.52;;;19.63;;
11829;SDS011;5972;42.134;24.718;2023-01-01T07:48:27;26.08;;;19.00;;
11829;SDS011;5972;42.134;24.718;2023-01-01T07:50:55;23.73;;;17.33;;
11829;SDS011;5972;42.134;24.718;2023-01-01T07:53:21;25.33;;;18.73;;
11829;SDS011;5972;42.134;24.718;2023-01-01T07:55:48;27.08;;;18.42;;
11829;SDS011;5972;42.134;24.718;2023-01-01T07:58:15;23.00;;;18.38;;
11829;SDS011;5972;42.134;24.718;2023-01-01T08:00:44;21.95;;;16.80;;
11829;SDS011;5972;42.134;24.718;2023-01-01T08:03:14;22.65;;;16.45;;
11829;SDS011;5972;42.134;24.718;2023-01-01T08:05:41;20.27;;;15.88;;
11829;SDS011;5972;42.134;24.718;2023-01-01T08:08:08;20.27;;;14.48;;
11829;SDS011;5972;42.134;24.718;2023-01-01T08:10:35;19.67;;;15.20;;
11829;SDS011;5972;42.134;24.718;2023-01-01T08:13:03;17.10;;;14.65;;
11829;SDS011;5972;42.134;24.718;2023-01-01T08:15:32;19.38;;;13.77;;
11829;SDS011;5972;42.134;24.718;2023-01-01T08:17:59;16.88;;;13.90;;
11829;SDS011;5972;42.134;24.718;2023-01-01T08:20:29;15.95;;;13.63;;
11829;SDS011;5972;42.134;24.718;2023-01-01T08:22:57;17.55;;;13.98;;
11829;SDS011;5972;42.134;24.718;2023-01-01T08:25:24;18.75;;;15.15;;
11829;SDS011;5972;42.134;24.718;2023-01-01T08:27:50;18.55;;;15.48;;
11829;SDS011;5972;42.134;24.718;2023-01-01T08:30:17;21.27;;;14.75;;
11829;SDS011;5972;42.134;24.718;2023-01-01T08:32:44;20.23;;;14.85;;
11829;SDS011;5972;42.134;24.718;2023-01-01T08:35:11;18.55;;;13.90;;
11829;SDS011;5972;42.134;24.718;2023-01-01T08:37:39;16.58;;;13.23;;
11829;SDS011;5972;42.134;24.718;2023-01-01T08:40:07;20.20;;;14.35;;
11829;SDS011;5972;42.134;24.718;2023-01-01T08:42:37;16.38;;;13.57;;
11829;SDS011;5972;42.134;24.718;2023-01-01T08:45:04;19.13;;;13.48;;
11829;SDS011;5972;42.134;24.718;2023-01-01T08:47:32;16.98;;;14.02;;
11829;SDS011;5972;42.134;24.718;2023-01-01T08:49:59;17.92;;;13.88;;
11829;SDS011;5972;42.134;24.718;2023-01-01T08:52:26;19.10;;;13.90;;
11829;SDS011;5972;42.134;24.718;2023-01-01T08:54:54;16.27;;;14.57;;
11829;SDS011;5972;42.134;24.718;2023-01-01T08:57:21;16.75;;;13.98;;
11829;SDS011;5972;42.134;24.718;2023-01-01T08:59:48;16.88;;;14.07;;
11829;SDS011;5972;42.134;24.718;2023-01-01T09:02:14;16.77;;;15.00;;
11829;SDS011;5972;42.134;24.718;2023-01-01T09:04:41;19.08;;;15.88;;
11829;SDS011;5972;42.134;24.718;2023-01-01T09:07:08;17.88;;;15.70;;
11829;SDS011;5972;42.134;24.718;2023-01-01T09:09:35;17.80;;;15.90;;
11829;SDS011;5972;42.134;24.718;2023-01-01T09:12:04;17.27;;;15.40;;
11829;SDS011;5972;42.134;24.718;2023-01-01T09:14:33;20.25;;;15.50;;
11829;SDS011;5972;42.134;24.718;2023-01-01T09:17:00;18.35;;;15.88;;
11829;SDS011;5972;42.134;24.718;2023-01-01T09:19:27;19.60;;;15.02;;
11829;SDS011;5972;42.134;24.718;2023-01-01T09:21:54;20.98;;;16.25;;
11829;SDS011;5972;42.134;24.718;2023-01-01T09:24:22;20.20;;;16.58;;
11829;SDS011;5972;42.134;24.718;2023-01-01T09:26:49;22.00;;;16.25;;
11829;SDS011;5972;42.134;24.718;2023-01-01T09:29:18;20.00;;;16.00;;
11829;SDS011;5972;42.134;24.718;2023-01-01T09:31:46;19.02;;;15.95;;
11829;SDS011;5972;42.134;24.718;2023-01-01T09:34:13;20.90;;;15.73;;
11829;SDS011;5972;42.134;24.718;2023-01-01T09:36:40;20.17;;;15.70;;
11829;SDS011;5972;42.134;24.718;2023-01-01T09:39:09;17.98;;;14.38;;
11829;SDS011;5972;42.134;24.718;2023-01-01T09:41:42;16.63;;;14.73;;
11829;SDS011;5972;42.134;24.718;2023-01-01T09:44:48;19.23;;;15.23;;
11829;SDS011;5972;42.134;24.718;2023-01-01T09:47:27;18.80;;;14.88;;
11829;SDS011;5972;42.134;24.718;2023-01-01T09:49:59;21.27;;;15.90;;
11829;SDS011;5972;42.134;24.718;2023-01-01T09:52:32;20.70;;;16.27;;
11829;SDS011;5972;42.134;24.718;2023-01-01T09:55:10;17.45;;;15.38;;
11829;SDS011;5972;42.134;24.718;2023-01-01T09:57:43;18.83;;;15.60;;
11829;SDS011;5972;42.134;24.718;2023-01-01T10:00:14;17.08;;;15.15;;
11829;SDS011;5972;42.134;24.718;2023-01-01T10:02:47;19.38;;;15.52;;
11829;SDS011;5972;42.134;24.718;2023-01-01T10:05:26;17.20;;;14.40;;
11829;SDS011;5972;42.134;24.718;2023-01-01T10:08:03;20.13;;;15.10;;
11829;SDS011;5972;42.134;24.718;2023-01-01T10:10:37;19.70;;;15.55;;
11829;SDS011;5972;42.134;24.718;2023-01-01T10:13:09;18.50;;;15.27;;
11829;SDS011;5972;42.134;24.718;2023-01-01T10:15:48;20.10;;;16.25;;
11829;SDS011;5972;42.134;24.718;2023-01-01T10:18:22;20.52;;;15.60;;
11829;SDS011;5972;42.134;24.718;2023-01-01T10:20:54;18.88;;;15.45;;
11829;SDS011;5972;42.134;24.718;2023-01-01T10:23:25;19.33;;;15.35;;
11829;SDS011;5972;42.134;24.718;2023-01-01T10:25:56;17.58;;;14.73;;
11829;SDS011;5972;42.134;24.718;2023-01-01T10:28:29;20.73;;;16.60;;
11829;SDS011;5972;42.134;24.718;2023-01-01T10:31:09;23.98;;;16.42;;
11829;SDS011;5972;42.134;24.718;2023-01-01T10:33:41;27.35;;;17.60;;
11829;SDS011;5972;42.134;24.718;2023-01-01T10:36:08;21.95;;;17.02;;
11829;SDS011;5972;42.134;24.718;2023-01-01T10:38:38;25.85;;;16.30;;
11829;SDS011;5972;42.134;24.718;2023-01-01T10:41:05;20.45;;;15.15;;
11829;SDS011;5972;42.134;24.718;2023-01-01T10:43:35;21.77;;;16.55;;
11829;SDS011;5972;42.134;24.718;2023-01-01T10:46:02;17.90;;;14.85;;
11829;SDS011;5972;42.134;24.718;2023-01-01T10:48:31;19.15;;;14.45;;
11829;SDS011;5972;42.134;24.718;2023-01-01T10:51:00;21.13;;;14.77;;
11829;SDS011;5972;42.134;24.718;2023-01-01T10:53:30;17.17;;;13.05;;
11829;SDS011;5972;42.134;24.718;2023-01-01T10:55:59;17.88;;;13.23;;
11829;SDS011;5972;42.134;24.718;2023-01-01T10:58:36;17.55;;;13.63;;
11829;SDS011;5972;42.134;24.718;2023-01-01T11:01:05;22.52;;;15.38;;
11829;SDS011;5972;42.134;24.718;2023-01-01T11:03:36;14.65;;;12.70;;
11829;SDS011;5972;42.134;24.718;2023-01-01T11:06:09;16.17;;;13.82;;
11829;SDS011;5972;42.134;24.718;2023-01-01T11:08:46;19.00;;;12.88;;
11829;SDS011;5972;42.134;24.718;2023-01-01T11:11:21;15.85;;;13.07;;
11829;SDS011;5972;42.134;24.718;2023-01-01T11:13:52;17.35;;;12.55;;
11829;SDS011;5972;42.134;24.718;2023-01-01T11:16:21;12.93;;;10.18;;
11829;SDS011;5972;42.134;24.718;2023-01-01T11:18:51;17.33;;;11.73;;
11829;SDS011;5972;42.134;24.718;2023-01-01T11:21:30;13.43;;;10.35;;
11829;SDS011;5972;42.134;24.718;2023-01-01T11:26:50;12.48;;;10.90;;
11829;SDS011;5972;42.134;24.718;2023-01-01T11:29:19;13.07;;;10.63;;
11829;SDS011;5972;42.134;24.718;2023-01-01T11:31:50;15.30;;;11.15;;
11829;SDS011;5972;42.134;24.718;2023-01-01T11:37:08;13.07;;;10.30;;
11829;SDS011;5972;42.134;24.718;2023-01-01T11:39:42;11.80;;;9.48;;
11829;SDS011;5972;42.134;24.718;2023-01-01T11:42:15;11.95;;;9.00;;
11829;SDS011;5972;42.134;24.718;2023-01-01T11:44:44;16.25;;;11.20;;
11829;SDS011;5972;42.134;24.718;2023-01-01T11:47:18;14.45;;;11.50;;
11829;SDS011;5972;42.134;24.718;2023-01-01T11:49:54;13.52;;;10.50;;
11829;SDS011;5972;42.134;24.718;2023-01-01T11:52:28;12.82;;;9.02;;
11829;SDS011;5972;42.134;24.718;2023-01-01T11:55:02;11.52;;;9.13;;
11829;SDS011;5972;42.134;24.718;2023-01-01T11:57:36;13.57;;;10.60;;
11829;SDS011;5972;42.134;24.718;2023-01-01T12:00:11;14.93;;;11.38;;
11829;SDS011;5972;42.134;24.718;2023-01-01T12:02:42;14.35;;;11.05;;
11829;SDS011;5972;42.134;24.718;2023-01-01T12:05:18;15.93;;;11.00;;
11829;SDS011;5972;42.134;24.718;2023-01-01T12:07:50;13.55;;;10.07;;
11829;SDS011;5972;42.134;24.718;2023-01-01T12:10:20;13.15;;;9.15;;
11829;SDS011;5972;42.134;24.718;2023-01-01T12:12:49;10.82;;;8.57;;
11829;SDS011;5972;42.134;24.718;2023-01-01T12:15:23;11.35;;;9.05;;
11829;SDS011;5972;42.134;24.718;2023-01-01T12:17:57;11.10;;;8.63;;
11829;SDS011;5972;42.134;24.718;2023-01-01T12:20:31;13.38;;;9.43;;
11829;SDS011;5972;42.134;24.718;2023-01-01T12:23:00;11.73;;;9.18;;
11829;SDS011;5972;42.134;24.718;2023-01-01T12:25:29;13.80;;;9.00;;
11829;SDS011;5972;42.134;24.718;2023-01-01T12:28:02;12.13;;;8.55;;
11829;SDS011;5972;42.134;24.718;2023-01-01T12:30:44;13.45;;;9.57;;
11829;SDS011;5972;42.134;24.718;2023-01-01T12:36:17;12.85;;;9.85;;
11829;SDS011;5972;42.134;24.718;2023-01-01T12:42:03;11.80;;;8.43;;
11829;SDS011;5972;42.134;24.718;2023-01-01T12:44:39;11.18;;;7.85;;
11829;SDS011;5972;42.134;24.718;2023-01-01T12:47:20;9.32;;;7.40;;
11829;SDS011;5972;42.134;24.718;2023-01-01T12:50:00;9.93;;;6.93;;
11829;SDS011;5972;42.134;24.718;2023-01-01T12:52:37;11.02;;;7.18;;
11829;SDS011;5972;42.134;24.718;2023-01-01T12:55:22;8.35;;;7.07;;
11829;SDS011;5972;42.134;24.718;2023-01-01T12:58:02;7.07;;;6.38;;
11829;SDS011;5972;42.134;24.718;2023-01-01T13:00:33;8.23;;;6.65;;
11829;SDS011;5972;42.134;24.718;2023-01-01T13:03:05;10.50;;;7.43;;
11829;SDS011;5972;42.134;24.718;2023-01-01T13:05:41;11.60;;;6.60;;
11829;SDS011;5972;42.134;24.718;2023-01-01T13:08:13;10.80;;;6.93;;
11829;SDS011;5972;42.134;24.718;2023-01-01T13:10:45;7.68;;;6.88;;
11829;SDS011;5972;42.134;24.718;2023-01-01T13:13:27;14.07;;;7.97;;
11829;SDS011;5972;42.134;24.718;2023-01-01T13:15:54;11.68;;;8.15;;
11829;SDS011;5972;42.134;24.718;2023-01-01T13:18:23;14.82;;;8.98;;
11829;SDS011;5972;42.134;24.718;2023-01-01T13:21:02;11.43;;;9.18;;
11829;SDS011;5972;42.134;24.718;2023-01-01T13:23:50;12.77;;;9.88;;
11829;SDS011;5972;42.134;24.718;2023-01-01T13:26:34;14.40;;;9.20;;
11829;SDS011;5972;42.134;24.718;2023-01-01T13:32:06;14.77;;;8.65;;
11829;SDS011;5972;42.134;24.718;2023-01-01T13:34:42;13.98;;;10.65;;
11829;SDS011;5972;42.134;24.718;2023-01-01T13:37:25;13.40;;;10.55;;
11829;SDS011;5972;42.134;24.718;2023-01-01T13:40:29;15.95;;;11.57;;
11829;SDS011;5972;42.134;24.718;2023-01-01T13:43:13;18.65;;;10.30;;
11829;SDS011;5972;42.134;24.718;2023-01-01T13:45:45;16.70;;;10.57;;
11829;SDS011;5972;42.134;24.718;2023-01-01T13:48:21;12.85;;;9.90;;
11829;SDS011;5972;42.134;24.718;2023-01-01T13:51:08;14.25;;;9.95;;
11829;SDS011;5972;42.134;24.718;2023-01-01T13:53:58;12.90;;;9.68;;
11829;SDS011;5972;42.134;24.718;2023-01-01T13:56:38;10.80;;;8.23;;
11829;SDS011;5972;42.134;24.718;2023-01-01T13:59:22;16.38;;;9.95;;
11829;SDS011;5972;42.134;24.718;2023-01-01T14:02:10;15.50;;;10.68;;
11829;SDS011;5972;42.134;24.718;2023-01-01T14:04:46;15.35;;;11.25;;
11829;SDS011;5972;42.134;24.718;2023-01-01T14:07:18;18.48;;;13.13;;
11829;SDS011;5972;42.134;24.718;2023-01-01T14:10:06;22.33;;;16.08;;
11829;SDS011;5972;42.134;24.718;2023-01-01T14:12:50;15.18;;;11.15;;
11829;SDS011;5972;42.134;24.718;2023-01-01T14:15:26;18.25;;;13.38;;
11829;SDS011;5972;42.134;24.718;2023-01-01T14:17:55;18.40;;;14.15;;
11829;SDS011;5972;42.134;24.718;2023-01-01T14:20:26;19.88;;;14.75;;
11829;SDS011;5972;42.134;24.718;2023-01-01T14:22:57;18.67;;;13.73;;
11829;SDS011;5972;42.134;24.718;2023-01-01T14:25:30;22.83;;;14.15;;
11829;SDS011;5972;42.134;24.718;2023-01-01T14:27:59;19.63;;;12.38;;
11829;SDS011;5972;42.134;24.718;2023-01-01T14:30:26;21.15;;;14.57;;
11829;SDS011;5972;42.134;24.718;2023-01-01T14:32:57;22.13;;;15.20;;
11829;SDS011;5972;42.134;24.718;2023-01-01T14:35:26;19.58;;;14.55;;
11829;SDS011;5972;42.134;24.718;2023-01-01T14:37:53;23.92;;;15.23;;
11829;SDS011;5972;42.134;24.718;2023-01-01T14:40:21;19.42;;;15.48;;
11829;SDS011;5972;42.134;24.718;2023-01-01T14:43:00;18.25;;;14.25;;
11829;SDS011;5972;42.134;24.718;2023-01-01T14:45:31;24.65;;;16.13;;
11829;SDS011;5972;42.134;24.718;2023-01-01T14:48:00;25.83;;;17.42;;
11829;SDS011;5972;42.134;24.718;2023-01-01T14:50:29;37.28;;;23.17;;
11829;SDS011;5972;42.134;24.718;2023-01-01T14:53:01;35.15;;;22.45;;
11829;SDS011;5972;42.134;24.718;2023-01-01T14:55:31;38.60;;;24.65;;
11829;SDS011;5972;42.134;24.718;2023-01-01T14:58:04;32.67;;;24.05;;
11829;SDS011;5972;42.134;24.718;2023-01-01T15:00:32;28.75;;;20.60;;
11829;SDS011;5972;42.134;24.718;2023-01-01T15:03:06;36.63;;;23.30;;
11829;SDS011;5972;42.134;24.718;2023-01-01T15:05:38;38.75;;;26.92;;